Time;durP1;ratioP1;P1;durP2;ratioP2;P2;SDS_P1;SDS_P2;PMS_P1;PMS_P2;Temp;Humidity;BMP_temperature;BMP_pressure;BME280_temperature;BME280_humidity;BME280_pressure;Samples;Min_cycle;Max_cycle;Signal;HPM_P1;HPM_P2
2023/03/24 00:02:18;;;;;;;13.95;5.10;;;11.70;99.90;;;;;;5157589;27;20036;-76
2023/03/24 00:04:48;;;;;;;8.48;4.55;;;11.80;99.90;;;;;;5139515;27;20423;-76
2023/03/24 00:07:15;;;;;;;7.95;5.18;;;11.70;99.90;;;;;;5157809;27;20043;-76
2023/03/24 00:09:43;;;;;;;10.35;5.45;;;11.70;99.90;;;;;;5157056;27;20043;-76
2023/03/24 00:12:10;;;;;;;5.95;4.30;;;11.70;99.90;;;;;;5157620;27;20101;-76
2023/03/24 00:14:37;;;;;;;6.68;5.40;;;11.70;99.90;;;;;;5157227;27;20046;-76
2023/03/24 00:17:16;;;;;;;10.10;5.38;;;11.70;99.90;;;;;;5139539;27;20394;-76
2023/03/24 00:19:44;;;;;;;6.55;5.50;;;11.70;99.90;;;;;;5157276;27;20050;-76
2023/03/24 00:22:13;;;;;;;8.77;5.88;;;11.70;99.90;;;;;;5157629;27;20093;-76
2023/03/24 00:24:45;;;;;;;7.55;5.05;;;11.70;99.90;;;;;;5157191;27;20078;-76
2023/03/24 00:27:12;;;;;;;5.28;4.78;;;11.70;99.90;;;;;;5157064;27;20049;-76
2023/03/24 00:29:40;;;;;;;5.93;5.18;;;11.40;99.90;;;;;;5157052;27;20086;-76
2023/03/24 00:32:06;;;;;;;9.20;5.28;;;11.70;99.90;;;;;;5156866;27;20110;-76
2023/03/24 00:34:37;;;;;;;8.57;5.78;;;11.70;99.90;;;;;;5156889;27;20047;-76
2023/03/24 00:37:04;;;;;;;7.40;5.93;;;11.60;99.90;;;;;;5157411;27;20035;-76
2023/03/24 00:39:31;;;;;;;6.40;5.13;;;11.70;99.90;;;;;;5157295;27;20103;-76
2023/03/24 00:41:58;;;;;;;9.38;6.03;;;11.70;99.90;;;;;;5138777;27;20110;-76
2023/03/24 00:44:24;;;;;;;10.43;5.35;;;11.60;99.90;;;;;;5157237;27;20039;-76
2023/03/24 00:46:58;;;;;;;8.30;5.03;;;11.70;99.90;;;;;;5156466;27;20450;-75
2023/03/24 00:49:43;;;;;;;6.45;4.43;;;11.60;99.90;;;;;;5156835;27;20045;-76
2023/03/24 00:52:10;;;;;;;9.88;5.50;;;11.60;99.90;;;;;;5156804;27;20035;-75
2023/03/24 00:54:38;;;;;;;7.38;4.55;;;11.60;99.90;;;;;;5156914;27;20042;-76
2023/03/24 00:57:05;;;;;;;6.22;4.75;;;11.60;99.90;;;;;;5156956;27;20043;-75
2023/03/24 00:59:31;;;;;;;8.57;4.55;;;11.60;99.90;;;;;;5156929;27;20076;-76
2023/03/24 01:01:56;;;;;;;9.27;5.97;;;11.70;99.90;;;;;;5155974;27;20038;-76
2023/03/24 01:04:25;;;;;;;6.97;4.47;;;11.60;99.90;;;;;;5155938;27;20047;-76
2023/03/24 01:06:53;;;;;;;6.35;3.70;;;11.60;99.90;;;;;;5156544;27;20046;-76
2023/03/24 01:09:22;;;;;;;9.05;4.65;;;11.60;99.90;;;;;;5156219;27;20039;-75
2023/03/24 01:11:48;;;;;;;6.30;4.43;;;11.60;99.90;;;;;;5156000;27;20050;-75
2023/03/24 01:14:13;;;;;;;5.78;5.07;;;11.60;99.90;;;;;;5137963;27;20042;-75
2023/03/24 01:16:41;;;;;;;5.72;3.97;;;11.60;99.90;;;;;;5156593;27;20472;-75
2023/03/24 01:19:08;;;;;;;6.28;4.32;;;11.60;99.90;;;;;;5156108;27;20055;-75
2023/03/24 01:21:35;;;;;;;5.35;4.35;;;11.60;99.90;;;;;;5156240;27;20096;-75
2023/03/24 01:24:03;;;;;;;5.40;3.70;;;11.60;99.90;;;;;;5155756;27;20043;-76
2023/03/24 01:26:30;;;;;;;7.95;4.47;;;11.60;99.90;;;;;;5156333;27;20039;-75
2023/03/24 01:28:56;;;;;;;9.60;4.28;;;11.60;99.90;;;;;;5155999;27;20045;-75
2023/03/24 01:31:21;;;;;;;11.80;4.50;;;11.60;99.90;;;;;;5155650;27;20058;-75
2023/03/24 01:33:47;;;;;;;9.60;4.28;;;11.60;99.90;;;;;;5156217;27;20169;-74
2023/03/24 01:36:13;;;;;;;4.10;3.50;;;11.60;99.90;;;;;;5155686;27;20099;-76
2023/03/24 01:38:38;;;;;;;5.72;4.45;;;11.60;99.90;;;;;;5155674;27;20046;-77
2023/03/24 01:41:05;;;;;;;7.07;4.20;;;11.60;99.90;;;;;;5155290;27;20045;-74
2023/03/24 01:43:33;;;;;;;7.22;4.13;;;11.70;99.90;;;;;;5156142;27;20041;-76
2023/03/24 01:46:34;;;;;;;8.45;4.28;;;11.60;99.90;;;;;;5155603;27;20043;-74
2023/03/24 01:49:06;;;;;;;5.20;3.85;;;11.60;99.90;;;;;;5071159;28;20127;-74
2023/03/24 01:51:43;;;;;;;5.60;4.47;;;11.60;99.90;;;;;;5124029;27;20056;-68
2023/03/24 01:54:15;;;;;;;6.57;3.70;;;11.60;99.90;;;;;;5155621;27;20130;-68
2023/03/24 01:56:49;;;;;;;7.65;4.78;;;11.60;99.90;;;;;;5155281;27;20087;-69
2023/03/24 01:59:21;;;;;;;4.47;4.05;;;11.70;99.90;;;;;;5137103;27;20142;-68
2023/03/24 02:01:47;;;;;;;4.53;3.97;;;11.60;99.90;;;;;;5155719;27;20065;-69
2023/03/24 02:04:14;;;;;;;8.27;4.13;;;11.60;99.90;;;;;;5155155;27;20474;-69
2023/03/24 02:06:42;;;;;;;6.22;4.30;;;11.30;99.90;;;;;;5155226;27;20056;-68
2023/03/24 02:09:10;;;;;;;6.78;4.20;;;11.70;99.90;;;;;;5155017;27;20099;-68
2023/03/24 02:11:38;;;;;;;6.88;4.40;;;11.60;99.90;;;;;;5155004;27;20035;-69
2023/03/24 02:14:06;;;;;;;5.53;4.32;;;11.60;99.90;;;;;;5154445;27;20051;-69
2023/03/24 02:16:42;;;;;;;5.85;3.72;;;11.60;99.90;;;;;;5154803;27;20047;-69
2023/03/24 02:19:11;;;;;;;5.72;4.22;;;11.60;99.90;;;;;;5136506;27;20558;-70
2023/03/24 02:21:56;;;;;;;5.82;3.70;;;11.60;99.90;;;;;;5155015;27;20043;-69
2023/03/24 02:24:42;;;;;;;4.90;4.20;;;11.60;99.90;;;;;;5154804;27;20046;-69
2023/03/24 02:27:17;;;;;;;6.75;3.78;;;11.60;99.90;;;;;;5137092;27;20393;-70
2023/03/24 02:30:08;;;;;;;7.57;4.72;;;11.60;99.90;;;;;;5136687;27;20039;-69
2023/03/24 02:32:55;;;;;;;5.90;4.03;;;11.70;99.90;;;;;;5154888;27;20043;-69
2023/03/24 02:35:35;;;;;;;5.63;4.47;;;11.70;99.90;;;;;;5154689;27;20047;-69
2023/03/24 02:38:33;;;;;;;5.57;4.05;;;11.70;99.90;;;;;;5136780;27;20098;-69
2023/03/24 02:41:20;;;;;;;7.90;4.20;;;11.70;99.90;;;;;;5154428;27;20086;-69
2023/03/24 02:44:01;;;;;;;5.75;3.63;;;11.70;99.90;;;;;;5154672;27;20043;-68
2023/03/24 02:46:44;;;;;;;8.10;4.10;;;11.70;99.90;;;;;;5155167;27;20038;-69
2023/03/24 02:49:20;;;;;;;5.00;4.25;;;11.70;99.90;;;;;;5136133;27;20059;-68
2023/03/24 02:52:01;;;;;;;6.30;4.82;;;11.70;99.90;;;;;;5135972;27;20072;-68
2023/03/24 02:54:57;;;;;;;5.75;4.03;;;11.70;99.90;;;;;;5154181;27;20038;-69
2023/03/24 02:57:28;;;;;;;5.38;4.57;;;11.70;99.90;;;;;;5135919;27;20070;-69
2023/03/24 03:00:23;;;;;;;5.32;4.63;;;11.70;99.90;;;;;;5154812;27;20046;-69
2023/03/24 03:02:56;;;;;;;4.95;4.32;;;11.80;99.90;;;;;;5154275;27;20057;-69
2023/03/24 03:05:48;;;;;;;5.25;4.20;;;11.80;99.90;;;;;;5154746;27;20130;-69
2023/03/24 03:08:17;;;;;;;5.70;4.40;;;11.80;99.90;;;;;;5153879;27;20054;-69
2023/03/24 03:10:47;;;;;;;7.97;4.20;;;11.80;99.90;;;;;;5154018;27;20046;-69
2023/03/24 03:13:36;;;;;;;5.30;3.53;;;11.80;99.90;;;;;;5154253;27;20055;-68
2023/03/24 03:16:12;;;;;;;7.95;4.35;;;11.70;99.90;;;;;;5135099;27;20050;-68
2023/03/24 03:18:48;;;;;;;5.22;3.75;;;11.80;99.90;;;;;;5154018;27;20085;-68
2023/03/24 03:21:19;;;;;;;7.15;4.65;;;11.80;99.90;;;;;;5154073;27;20050;-69
2023/03/24 03:24:09;;;;;;;5.10;4.30;;;11.80;99.90;;;;;;5154007;27;20094;-69
2023/03/24 03:26:36;;;;;;;5.05;4.45;;;11.80;99.90;;;;;;5154631;27;20058;-68
2023/03/24 03:29:15;;;;;;;4.18;3.63;;;11.80;99.90;;;;;;5158249;27;20046;-69
2023/03/24 03:32:16;;;;;;;5.10;4.60;;;11.80;99.90;;;;;;5158117;27;20039;-69
2023/03/24 03:34:48;;;;;;;4.28;3.58;;;11.90;99.90;;;;;;5121808;27;20047;-69
2023/03/24 03:38:16;;;;;;;5.32;4.10;;;11.90;99.90;;;;;;5158410;27;20046;-69
2023/03/24 03:40:51;;;;;;;8.15;4.20;;;11.90;99.90;;;;;;5068232;28;20551;-69
2023/03/24 03:43:17;;;;;;;6.82;4.07;;;11.90;99.90;;;;;;5145988;27;20061;-69
2023/03/24 03:45:43;;;;;;;6.80;4.28;;;11.90;99.90;;;;;;5158088;27;20042;-71
2023/03/24 03:48:09;;;;;;;2.20;1.80;;;11.90;99.90;;;;;;5139237;27;20443;-68
2023/03/24 03:50:37;;;;;;;2.75;1.58;;;11.60;99.90;;;;;;5139458;27;20043;-68
2023/03/24 03:53:03;;;;;;;2.30;1.88;;;11.40;99.90;;;;;;5157762;27;20047;-68
2023/03/24 03:55:30;;;;;;;3.55;2.40;;;11.40;99.90;;;;;;5157595;27;20043;-68
2023/03/24 03:57:55;;;;;;;4.07;2.55;;;11.40;99.90;;;;;;5157675;27;20077;-69
2023/03/24 04:00:21;;;;;;;5.88;2.35;;;11.40;99.90;;;;;;5157661;27;20469;-70
2023/03/24 04:03:11;;;;;;;3.22;2.60;;;11.40;99.90;;;;;;5157964;27;20062;-69
2023/03/24 04:06:00;;;;;;;4.28;2.90;;;11.40;99.90;;;;;;5157690;27;20054;-69
2023/03/24 04:08:49;;;;;;;2.58;2.38;;;11.40;99.90;;;;;;5157622;27;20042;-70
2023/03/24 04:11:49;;;;;;;3.80;2.63;;;11.30;99.90;;;;;;5157453;27;20043;-69
2023/03/24 04:14:29;;;;;;;3.10;2.40;;;11.40;99.90;;;;;;5158048;27;20057;-70
2023/03/24 04:17:20;;;;;;;5.63;2.60;;;11.30;99.90;;;;;;5139764;27;20317;-69
2023/03/24 04:20:11;;;;;;;2.50;2.22;;;11.20;99.90;;;;;;5157367;27;20046;-69
2023/03/24 04:23:13;;;;;;;8.73;2.45;;;11.20;99.90;;;;;;5157278;27;20046;-71
2023/03/24 04:26:16;;;;;;;4.45;3.22;;;11.20;99.90;;;;;;5157597;27;20035;-69
2023/03/24 04:28:56;;;;;;;3.17;2.03;;;11.10;99.90;;;;;;5157121;27;20042;-70
2023/03/24 04:31:34;;;;;;;5.15;3.05;;;11.10;99.90;;;;;;5157491;27;20082;-70
2023/03/24 04:34:41;;;;;;;4.18;2.20;;;11.10;99.90;;;;;;5156957;27;20053;-70
2023/03/24 04:37:36;;;;;;;3.92;1.88;;;11.00;99.90;;;;;;5157143;27;20058;-69
2023/03/24 04:40:09;;;;;;;8.40;2.40;;;11.00;99.90;;;;;;5157059;27;20039;-69
2023/03/24 04:42:44;;;;;;;5.32;2.72;;;11.00;99.90;;;;;;5157543;27;20086;-70
2023/03/24 04:45:11;;;;;;;5.78;2.30;;;10.90;99.90;;;;;;5157126;27;20050;-69
2023/03/24 04:47:45;;;;;;;7.97;2.60;;;10.80;99.90;;;;;;5156678;27;20058;-71
2023/03/24 04:50:12;;;;;;;5.22;2.25;;;10.80;99.90;;;;;;5138405;27;20526;-69
2023/03/24 04:52:40;;;;;;;6.05;2.28;;;10.80;99.90;;;;;;5138015;27;20475;-69
2023/03/24 04:55:42;;;;;;;6.75;2.40;;;10.80;99.90;;;;;;5156557;27;20227;-68
2023/03/24 04:58:08;;;;;;;3.70;1.98;;;10.70;99.90;;;;;;5156500;27;20058;-70
2023/03/24 05:00:35;;;;;;;6.13;2.47;;;10.70;99.90;;;;;;5156503;27;20062;-70
2023/03/24 05:03:02;;;;;;;6.90;2.33;;;10.70;99.90;;;;;;5120998;27;20054;-70
2023/03/24 05:05:28;;;;;;;7.40;2.60;;;10.70;99.90;;;;;;5137928;27;20054;-70
2023/03/24 05:07:55;;;;;;;8.07;2.58;;;10.70;99.90;;;;;;5156229;27;20039;-70
2023/03/24 05:10:22;;;;;;;6.82;2.88;;;10.60;99.90;;;;;;5156161;27;20517;-70
2023/03/24 05:12:48;;;;;;;7.05;2.40;;;10.60;99.90;;;;;;5156055;27;20499;-70
2023/03/24 05:15:14;;;;;;;6.95;2.72;;;10.60;99.90;;;;;;5156365;27;20078;-70
2023/03/24 05:17:40;;;;;;;5.63;2.90;;;10.50;99.90;;;;;;5156084;27;20067;-70
2023/03/24 05:20:10;;;;;;;5.65;2.72;;;10.50;99.90;;;;;;5156130;27;20133;-70
2023/03/24 05:22:39;;;;;;;7.32;3.10;;;10.50;99.90;;;;;;5156499;27;20118;-70
2023/03/24 05:25:05;;;;;;;6.88;3.40;;;10.50;99.90;;;;;;5120608;27;20050;-70
2023/03/24 05:27:31;;;;;;;5.85;3.00;;;10.40;99.90;;;;;;5156476;27;20070;-71
2023/03/24 05:29:57;;;;;;;7.88;3.85;;;10.40;99.90;;;;;;5155864;27;20541;-70
2023/03/24 05:32:22;;;;;;;8.75;3.30;;;10.40;99.90;;;;;;5155696;27;20074;-70
2023/03/24 05:34:48;;;;;;;5.40;3.47;;;10.40;99.90;;;;;;5155676;27;20042;-70
2023/03/24 05:37:16;;;;;;;6.22;3.20;;;10.40;99.90;;;;;;5155581;27;20053;-70
2023/03/24 05:39:42;;;;;;;5.55;3.17;;;10.40;99.90;;;;;;5137489;27;20121;-70
2023/03/24 05:42:07;;;;;;;4.72;3.25;;;10.40;99.90;;;;;;5155759;27;20070;-71
2023/03/24 05:44:33;;;;;;;6.93;4.45;;;10.30;99.90;;;;;;5155514;27;20531;-70
2023/03/24 05:46:59;;;;;;;8.80;3.53;;;10.30;99.90;;;;;;5137026;27;20118;-70
2023/03/24 05:49:25;;;;;;;8.60;3.10;;;10.40;99.90;;;;;;5155090;27;20042;-70
2023/03/24 05:51:51;;;;;;;8.60;3.58;;;10.30;99.90;;;;;;5155416;27;20118;-71
2023/03/24 05:54:16;;;;;;;7.28;4.03;;;10.30;99.90;;;;;;5137148;27;20065;-70
2023/03/24 05:56:42;;;;;;;6.80;3.83;;;10.30;99.90;;;;;;5137108;27;20039;-70
2023/03/24 05:59:08;;;;;;;6.65;3.95;;;10.40;99.90;;;;;;5156126;27;20138;-71
2023/03/24 06:01:34;;;;;;;10.13;3.20;;;10.30;99.90;;;;;;5155301;27;20050;-70
2023/03/24 06:03:59;;;;;;;8.90;3.88;;;10.30;99.90;;;;;;5155065;27;20049;-70
2023/03/24 06:06:27;;;;;;;10.90;3.63;;;10.30;99.90;;;;;;5155502;27;20118;-71
2023/03/24 06:08:57;;;;;;;9.18;3.30;;;10.30;99.90;;;;;;5155657;27;20130;-71
2023/03/24 06:11:23;;;;;;;8.05;3.83;;;10.30;99.90;;;;;;5155466;27;20424;-71
2023/03/24 06:13:49;;;;;;;6.20;3.10;;;10.30;99.90;;;;;;5154751;27;20135;-71
2023/03/24 06:16:17;;;;;;;7.97;3.50;;;10.30;99.90;;;;;;5155064;27;20072;-71
2023/03/24 06:18:51;;;;;;;9.02;4.20;;;10.30;99.90;;;;;;5136495;27;20095;-71
2023/03/24 06:21:17;;;;;;;10.82;4.15;;;10.20;99.90;;;;;;5137096;27;20122;-71
2023/03/24 06:23:43;;;;;;;8.27;3.17;;;10.20;99.90;;;;;;5155256;27;20055;-70
2023/03/24 06:26:11;;;;;;;7.95;3.58;;;10.20;99.90;;;;;;5154928;27;20559;-71
2023/03/24 06:28:38;;;;;;;11.93;4.18;;;10.20;99.90;;;;;;5154822;27;20038;-71
2023/03/24 06:31:17;;;;;;;6.90;3.30;;;10.20;99.90;;;;;;5154681;27;20054;-71
2023/03/24 06:33:43;;;;;;;8.45;3.35;;;10.20;99.90;;;;;;5154528;27;20034;-69
2023/03/24 06:36:11;;;;;;;9.48;3.30;;;10.20;99.90;;;;;;5154466;27;20046;-70
2023/03/24 06:38:36;;;;;;;15.68;4.40;;;10.20;99.90;;;;;;5154466;27;20047;-69
2023/03/24 06:41:03;;;;;;;5.88;3.40;;;10.30;99.90;;;;;;5135742;27;20042;-69
2023/03/24 06:43:29;;;;;;;7.43;3.38;;;10.30;99.90;;;;;;5154825;27;20078;-71
2023/03/24 06:45:55;;;;;;;8.32;3.42;;;10.30;99.90;;;;;;5136112;27;20043;-69
2023/03/24 06:48:21;;;;;;;7.50;3.40;;;10.40;99.90;;;;;;5154339;27;20094;-69
2023/03/24 06:50:47;;;;;;;6.55;3.38;;;10.40;99.90;;;;;;5135868;27;20470;-69
2023/03/24 06:53:13;;;;;;;6.97;3.33;;;10.40;99.90;;;;;;5154346;27;20042;-70
2023/03/24 06:55:39;;;;;;;7.22;3.45;;;10.50;99.90;;;;;;5154349;27;20531;-69
2023/03/24 06:58:04;;;;;;;11.75;3.58;;;10.40;99.90;;;;;;5153899;27;20038;-70
2023/03/24 07:00:30;;;;;;;7.47;3.13;;;10.50;99.90;;;;;;5154107;27;20081;-69
2023/03/24 07:02:56;;;;;;;6.47;3.63;;;10.50;99.90;;;;;;5154236;27;20081;-69
2023/03/24 07:05:22;;;;;;;7.32;3.25;;;10.60;99.90;;;;;;5154555;27;20475;-70
2023/03/24 07:07:48;;;;;;;7.20;2.83;;;10.60;99.90;;;;;;5135867;27;20049;-69
2023/03/24 07:10:15;;;;;;;11.27;3.80;;;10.70;99.90;;;;;;5153922;27;20050;-70
2023/03/24 07:12:41;;;;;;;5.95;3.45;;;10.70;99.90;;;;;;5153692;27;20042;-70
2023/03/24 07:15:08;;;;;;;10.13;3.90;;;10.70;99.90;;;;;;5135652;27;20050;-70
2023/03/24 07:17:34;;;;;;;8.00;2.92;;;10.60;99.90;;;;;;5153992;27;20045;-70
2023/03/24 07:20:00;;;;;;;5.53;2.85;;;10.60;99.90;;;;;;5135756;27;20121;-70
2023/03/24 07:22:26;;;;;;;6.78;3.40;;;10.70;99.90;;;;;;5153933;27;20078;-70
2023/03/24 07:24:52;;;;;;;6.78;3.03;;;10.60;99.90;;;;;;5153897;27;20049;-70
2023/03/24 07:27:17;;;;;;;12.23;4.70;;;10.60;99.90;;;;;;5118985;27;20058;-70
2023/03/24 07:29:43;;;;;;;13.88;4.10;;;10.70;99.90;;;;;;5153906;27;20046;-70
2023/03/24 07:32:09;;;;;;;12.60;3.95;;;10.70;99.90;;;;;;5153743;27;20133;-71
2023/03/24 07:34:38;;;;;;;7.38;3.63;;;10.70;99.90;;;;;;5153821;27;20089;-71
2023/03/24 07:37:04;;;;;;;10.40;3.75;;;10.70;99.90;;;;;;5153787;27;20135;-70
2023/03/24 07:39:30;;;;;;;8.15;4.45;;;10.80;99.90;;;;;;5135583;27;20082;-71
2023/03/24 07:41:56;;;;;;;7.78;3.90;;;10.80;99.90;;;;;;5135496;27;20104;-71
2023/03/24 07:44:21;;;;;;;8.60;3.65;;;10.80;99.90;;;;;;5135978;27;20539;-71
2023/03/24 07:46:47;;;;;;;6.82;3.95;;;10.90;99.90;;;;;;5154073;27;20043;-71
2023/03/24 07:49:13;;;;;;;12.95;5.32;;;11.00;99.90;;;;;;5154098;27;20034;-71
2023/03/24 07:51:39;;;;;;;15.32;4.07;;;11.10;99.90;;;;;;5153528;27;20047;-71
2023/03/24 07:54:05;;;;;;;9.65;3.67;;;11.10;99.90;;;;;;5135597;27;20175;-71
2023/03/24 07:56:31;;;;;;;9.70;3.38;;;11.30;99.90;;;;;;5153587;27;20059;-71
2023/03/24 07:58:57;;;;;;;9.80;4.30;;;11.30;99.90;;;;;;5153449;27;20042;-70
2023/03/24 08:01:22;;;;;;;14.80;4.72;;;11.30;99.90;;;;;;5153822;27;20132;-70
2023/03/24 08:03:53;;;;;;;8.95;3.67;;;11.30;99.90;;;;;;5153599;27;20059;-71
2023/03/24 08:06:19;;;;;;;15.35;3.80;;;11.20;99.90;;;;;;5154131;27;20100;-71
2023/03/24 08:08:44;;;;;;;13.00;4.35;;;11.20;99.90;;;;;;5154173;27;20089;-70
2023/03/24 08:11:10;;;;;;;14.63;4.35;;;11.20;99.90;;;;;;5153422;27;20499;-71
2023/03/24 08:13:36;;;;;;;19.63;5.30;;;11.10;99.90;;;;;;5156856;27;20473;-71
2023/03/24 08:16:03;;;;;;;11.98;4.05;;;11.10;99.90;;;;;;5157872;27;20062;-71
2023/03/24 08:18:31;;;;;;;12.50;4.57;;;11.10;99.90;;;;;;5157248;27;20130;-71
2023/03/24 08:20:58;;;;;;;12.35;4.05;;;11.10;99.90;;;;;;5157214;27;20047;-71
2023/03/24 08:23:24;;;;;;;19.75;4.32;;;11.30;99.90;;;;;;5157476;27;20066;-71
2023/03/24 08:25:50;;;;;;;12.23;3.80;;;11.40;99.90;;;;;;5138895;27;20418;-71
2023/03/24 08:28:15;;;;;;;8.85;3.88;;;11.30;99.90;;;;;;5138446;27;20051;-69
2023/03/24 08:30:44;;;;;;;11.90;4.38;;;11.30;99.90;;;;;;5157020;27;20042;-71
2023/03/24 08:33:13;;;;;;;11.75;5.00;;;11.20;99.90;;;;;;5156853;27;20078;-70
2023/03/24 08:35:40;;;;;;;11.88;4.10;;;11.10;99.90;;;;;;5138645;27;20038;-71
2023/03/24 08:38:08;;;;;;;12.25;5.28;;;11.10;99.90;;;;;;5156946;27;20117;-71
2023/03/24 08:40:35;;;;;;;13.05;4.82;;;11.10;99.90;;;;;;5156758;27;20081;-72
2023/03/24 08:43:04;;;;;;;10.93;5.43;;;11.00;99.90;;;;;;5157135;27;20039;-72
2023/03/24 08:45:31;;;;;;;12.95;4.15;;;11.00;99.90;;;;;;5156789;27;20534;-68
2023/03/24 08:48:02;;;;;;;11.50;4.38;;;11.00;99.90;;;;;;5156665;27;20039;-70
2023/03/24 08:50:33;;;;;;;15.05;4.53;;;11.10;99.90;;;;;;5138220;27;20061;-71
2023/03/24 08:52:59;;;;;;;8.70;3.53;;;11.10;99.90;;;;;;5156821;27;20102;-71
2023/03/24 08:55:25;;;;;;;12.00;4.45;;;11.10;99.90;;;;;;5157023;27;20175;-70
2023/03/24 08:57:51;;;;;;;12.70;4.07;;;11.10;99.90;;;;;;5138097;27;20514;-71
2023/03/24 09:00:18;;;;;;;22.60;5.88;;;11.20;99.90;;;;;;5156625;27;20042;-70
2023/03/24 09:02:46;;;;;;;12.98;4.70;;;11.30;99.90;;;;;;5156224;27;20501;-70
2023/03/24 09:05:14;;;;;;;12.68;5.28;;;11.50;99.90;;;;;;5156338;27;20039;-71
2023/03/24 09:07:40;;;;;;;13.25;3.90;;;11.80;99.90;;;;;;5156273;27;20082;-70
2023/03/24 09:10:08;;;;;;;6.78;3.88;;;12.50;99.90;;;;;;5156248;27;20475;-70
2023/03/24 09:12:35;;;;;;;7.85;4.57;;;12.30;99.90;;;;;;5138012;27;20052;-71
2023/03/24 09:15:02;;;;;;;12.98;3.55;;;12.10;99.90;;;;;;5156144;27;20078;-71
2023/03/24 09:17:28;;;;;;;10.70;3.55;;;11.90;99.90;;;;;;5156127;27;20058;-70
2023/03/24 09:19:54;;;;;;;11.55;3.92;;;12.10;99.90;;;;;;5137736;27;20053;-71
2023/03/24 09:22:20;;;;;;;4.78;3.05;;;12.70;99.90;;;;;;5137902;27;20071;-71
2023/03/24 09:24:47;;;;;;;10.20;4.55;;;13.00;99.90;;;;;;5155052;27;20077;-71
2023/03/24 09:27:15;;;;;;;13.88;3.65;;;13.00;99.90;;;;;;5155935;27;20069;-71
2023/03/24 09:29:41;;;;;;;8.35;3.30;;;13.50;99.90;;;;;;5137461;27;20117;-71
2023/03/24 09:32:07;;;;;;;13.57;4.72;;;14.30;99.90;;;;;;5155449;27;20049;-72
2023/03/24 09:34:33;;;;;;;9.32;3.83;;;14.90;99.90;;;;;;5137747;27;20066;-71
2023/03/24 09:37:01;;;;;;;12.18;4.45;;;15.40;99.90;;;;;;5155980;27;20498;-71
2023/03/24 09:39:27;;;;;;;9.52;3.83;;;15.50;99.90;;;;;;5156207;27;20065;-70
2023/03/24 09:41:54;;;;;;;7.85;4.22;;;15.70;99.90;;;;;;5155890;27;20532;-71
2023/03/24 09:44:23;;;;;;;6.18;3.13;;;15.90;99.90;;;;;;5155650;27;20057;-71
2023/03/24 09:46:56;;;;;;;12.45;4.15;;;15.60;99.90;;;;;;5155560;27;20474;-72
2023/03/24 09:49:26;;;;;;;6.70;3.00;;;15.20;99.90;;;;;;5156017;27;20426;-70
2023/03/24 09:51:59;;;;;;;11.90;4.15;;;15.20;99.90;;;;;;5136922;27;20125;-71
2023/03/24 09:54:27;;;;;;;11.32;3.67;;;15.30;99.90;;;;;;5155392;27;20042;-70
2023/03/24 09:56:56;;;;;;;11.88;4.07;;;16.20;99.90;;;;;;5155238;27;20089;-71
2023/03/24 09:59:27;;;;;;;10.68;3.25;;;16.10;99.90;;;;;;5155102;27;20047;-71
2023/03/24 10:01:53;;;;;;;11.25;3.60;;;15.80;99.90;;;;;;5137091;27;20050;-71
2023/03/24 10:04:23;;;;;;;12.48;4.40;;;15.80;99.90;;;;;;5137072;27;20038;-71
2023/03/24 10:07:10;;;;;;;10.10;3.13;;;15.40;99.90;;;;;;5155725;27;20046;-70
2023/03/24 10:09:36;;;;;;;14.70;3.60;;;14.50;99.90;;;;;;5112401;27;20065;-71
2023/03/24 10:12:46;;;;;;;9.27;3.10;;;13.70;99.90;;;;;;5155096;27;20121;-71
2023/03/24 10:15:43;;;;;;;13.18;4.00;;;13.20;99.90;;;;;;5054260;28;20534;-72
2023/03/24 10:18:11;;;;;;;15.15;4.07;;;13.00;99.90;;;;;;5070808;28;20067;-71
2023/03/24 10:21:00;;;;;;;10.23;4.10;;;13.00;99.90;;;;;;5132684;27;20050;-71
2023/03/24 10:23:44;;;;;;;9.63;3.90;;;13.20;99.90;;;;;;5154999;27;20118;-71
2023/03/24 10:26:32;;;;;;;12.73;3.47;;;13.50;99.90;;;;;;5155595;27;20131;-71
2023/03/24 10:28:58;;;;;;;11.45;3.85;;;14.20;99.90;;;;;;5155042;27;20047;-71
2023/03/24 10:31:30;;;;;;;10.65;3.75;;;14.50;99.90;;;;;;5154818;27;20387;-71
2023/03/24 10:33:56;;;;;;;13.35;3.83;;;15.40;99.90;;;;;;5154688;27;20035;-71
2023/03/24 10:36:23;;;;;;;9.00;3.50;;;15.90;99.90;;;;;;5135867;27;20047;-71
2023/03/24 10:38:50;;;;;;;6.43;3.00;;;16.40;99.90;;;;;;5154660;27;20050;-71
2023/03/24 10:41:26;;;;;;;8.05;3.63;;;16.10;98.60;;;;;;5154785;27;20516;-71
2023/03/24 10:43:55;;;;;;;11.45;3.47;;;15.40;99.90;;;;;;5154631;27;20038;-70
2023/03/24 10:46:27;;;;;;;11.02;4.07;;;14.50;99.90;;;;;;5154562;27;20049;-71
2023/03/24 10:49:07;;;;;;;14.07;4.38;;;14.90;99.90;;;;;;5136164;27;20065;-71
2023/03/24 10:51:33;;;;;;;11.68;4.20;;;15.30;99.90;;;;;;5154424;27;20042;-71
2023/03/24 10:54:12;;;;;;;12.10;4.30;;;15.70;99.90;;;;;;5154487;27;20121;-71
2023/03/24 10:56:40;;;;;;;5.50;3.00;;;14.90;98.60;;;;;;5154383;27;20043;-71
2023/03/24 10:59:43;;;;;;;10.75;3.58;;;14.70;99.90;;;;;;5136511;27;20138;-71
2023/03/24 11:02:09;;;;;;;11.27;3.10;;;14.60;99.90;;;;;;5136316;27;20047;-71
2023/03/24 11:04:40;;;;;;;10.65;2.92;;;14.40;99.90;;;;;;5154359;27;20388;-70
2023/03/24 11:07:17;;;;;;;10.73;4.40;;;14.40;99.90;;;;;;5153991;27;20491;-71
2023/03/24 11:09:46;;;;;;;8.05;3.88;;;14.40;99.90;;;;;;5154215;27;20463;-71
2023/03/24 11:12:52;;;;;;;8.70;2.80;;;14.30;99.90;;;;;;5154157;27;20122;-71
2023/03/24 11:15:29;;;;;;;15.07;3.45;;;14.30;99.90;;;;;;5069799;28;20132;-71
2023/03/24 11:18:00;;;;;;;10.13;2.97;;;14.30;99.90;;;;;;5070070;28;20512;-70
2023/03/24 11:20:36;;;;;;;6.20;3.15;;;14.20;99.90;;;;;;5120191;27;20082;-70
2023/03/24 11:23:03;;;;;;;10.07;2.60;;;14.10;99.90;;;;;;5154286;27;20038;-71
2023/03/24 11:25:34;;;;;;;8.98;3.55;;;14.00;99.90;;;;;;5154104;27;20098;-71
2023/03/24 11:28:04;;;;;;;8.70;3.35;;;13.80;99.90;;;;;;5135865;27;20421;-70
2023/03/24 11:30:43;;;;;;;5.93;2.28;;;13.70;99.90;;;;;;5135505;27;20046;-71
2023/03/24 11:33:16;;;;;;;8.45;2.67;;;13.50;99.60;;;;;;5153982;27;20042;-70
2023/03/24 11:35:42;;;;;;;;;;;13.60;99.90;;;;;;5154466;27;20043;-71
2023/03/24 11:38:13;;;;;;;11.20;3.20;;;13.70;99.90;;;;;;5154052;27;19923;-71
2023/03/24 11:40:52;;;;;;;9.93;3.67;;;13.80;99.90;;;;;;5154331;27;20125;-71
2023/03/24 11:43:20;;;;;;;9.60;3.03;;;14.00;99.90;;;;;;5153985;27;20039;-72
2023/03/24 11:45:56;;;;;;;8.45;2.55;;;14.00;99.90;;;;;;5118691;27;20051;-71
2023/03/24 11:48:48;;;;;;;6.35;2.72;;;14.00;99.60;;;;;;5156967;27;20107;-72
2023/03/24 11:51:34;;;;;;;8.48;2.83;;;13.90;99.80;;;;;;5158069;27;20051;-71
2023/03/24 11:54:03;;;;;;;8.77;2.90;;;14.10;99.90;;;;;;5158618;27;20038;-71
2023/03/24 11:56:29;;;;;;;9.95;2.95;;;14.30;99.90;;;;;;5158582;27;20045;-71
2023/03/24 11:59:17;;;;;;;7.47;2.63;;;14.40;99.90;;;;;;5157617;27;20051;-71
2023/03/24 12:01:57;;;;;;;5.78;2.50;;;14.50;99.90;;;;;;5157868;27;20121;-72
2023/03/24 12:04:54;;;;;;;7.55;2.67;;;14.30;99.80;;;;;;5157425;27;20478;-70
2023/03/24 12:07:42;;;;;;;7.95;2.90;;;14.20;99.90;;;;;;5157605;27;20122;-71
2023/03/24 12:10:24;;;;;;;9.75;3.03;;;14.10;99.90;;;;;;5139497;27;20042;-71
2023/03/24 12:13:05;;;;;;;6.63;2.92;;;14.00;99.90;;;;;;5157602;27;20039;-71
2023/03/24 12:15:50;;;;;;;9.07;2.88;;;14.20;99.40;;;;;;5158470;27;20074;-70
2023/03/24 12:18:36;;;;;;;5.65;2.72;;;14.10;99.90;;;;;;5157483;27;20045;-71
2023/03/24 12:21:08;;;;;;;7.00;2.50;;;13.90;99.90;;;;;;5157444;27;20050;-71
2023/03/24 12:23:45;;;;;;;7.22;3.15;;;14.00;99.90;;;;;;5138924;27;20459;-71
2023/03/24 12:26:22;;;;;;;6.85;2.72;;;14.20;99.90;;;;;;5139333;27;20375;-71
2023/03/24 12:28:57;;;;;;;6.40;2.67;;;14.30;99.60;;;;;;5157552;27;20107;-71
2023/03/24 12:31:33;;;;;;;8.32;3.10;;;14.30;99.90;;;;;;5157568;27;20045;-72
2023/03/24 12:34:32;;;;;;;12.88;3.65;;;14.00;99.90;;;;;;5121972;27;20116;-71
2023/03/24 12:37:19;;;;;;;10.95;3.05;;;14.10;99.90;;;;;;5157380;27;20046;-70
2023/03/24 12:39:53;;;;;;;12.07;2.70;;;14.40;99.90;;;;;;5157451;27;20195;-71
2023/03/24 12:42:22;;;;;;;6.93;2.47;;;14.40;99.90;;;;;;5157659;27;20041;-71
2023/03/24 12:45:06;;;;;;;5.72;2.97;;;14.50;99.70;;;;;;5156860;27;20125;-70
2023/03/24 12:47:52;;;;;;;7.43;2.72;;;14.40;99.00;;;;;;5157297;27;20046;-72
2023/03/24 12:50:44;;;;;;;8.15;2.67;;;14.60;99.10;;;;;;5156811;27;20052;-71
2023/03/24 12:53:21;;;;;;;6.25;2.30;;;14.30;99.50;;;;;;5157007;27;20069;-70
2023/03/24 12:55:47;;;;;;;3.83;2.22;;;14.20;99.10;;;;;;5156797;27;20035;-70
2023/03/24 12:58:22;;;;;;;5.75;2.30;;;14.20;98.40;;;;;;5156449;27;20094;-71
2023/03/24 13:01:15;;;;;;;8.27;2.30;;;14.10;98.50;;;;;;5156918;27;20080;-70
2023/03/24 13:04:00;;;;;;;11.25;2.80;;;14.20;97.70;;;;;;5156705;27;20042;-71
2023/03/24 13:06:37;;;;;;;9.45;3.40;;;14.30;97.20;;;;;;5157179;27;20087;-69
2023/03/24 13:09:40;;;;;;;6.97;2.72;;;14.30;98.20;;;;;;5137974;27;20082;-71
2023/03/24 13:12:15;;;;;;;4.70;2.30;;;14.20;96.90;;;;;;5156690;27;20602;-71
2023/03/24 13:15:01;;;;;;;6.47;2.22;;;14.00;95.50;;;;;;5156967;27;20125;-71